sensor_id;sensor_type;location;lat;lon;timestamp;temperature;humidity
55365;DHT22;41245;45.384;20.390;2023-02-13T00:00:05;76.90;2227.20
55365;DHT22;41245;45.384;20.390;2023-02-13T00:02:31;76.90;2227.20
55365;DHT22;41245;45.384;20.390;2023-02-13T00:04:56;76.90;2227.20
55365;DHT22;41245;45.384;20.390;2023-02-13T00:07:22;76.80;2227.20
55365;DHT22;41245;45.384;20.390;2023-02-13T00:09:48;76.80;2227.20
55365;DHT22;41245;45.384;20.390;2023-02-13T00:12:13;76.80;2227.20
55365;DHT22;41245;45.384;20.390;2023-02-13T00:14:40;52.10;2227.20
55365;DHT22;41245;45.384;20.390;2023-02-13T00:17:06;52.10;2227.20
55365;DHT22;41245;45.384;20.390;2023-02-13T00:19:32;52.10;2227.20
55365;DHT22;41245;45.384;20.390;2023-02-13T00:21:57;52.10;2227.20
55365;DHT22;41245;45.384;20.390;2023-02-13T00:24:23;52.10;2227.20
55365;DHT22;41245;45.384;20.390;2023-02-13T00:26:49;52.00;2227.20
55365;DHT22;41245;45.384;20.390;2023-02-13T00:29:14;52.10;2227.20
55365;DHT22;41245;45.384;20.390;2023-02-13T00:31:40;52.10;2227.20
55365;DHT22;41245;45.384;20.390;2023-02-13T00:34:05;52.10;2227.20
55365;DHT22;41245;45.384;20.390;2023-02-13T00:36:31;52.00;2227.20
55365;DHT22;41245;45.384;20.390;2023-02-13T00:38:57;52.00;2227.20
55365;DHT22;41245;45.384;20.390;2023-02-13T00:41:22;52.00;2227.20
55365;DHT22;41245;45.384;20.390;2023-02-13T00:43:48;52.00;2227.20
55365;DHT22;41245;45.384;20.390;2023-02-13T00:46:15;52.00;2227.20
55365;DHT22;41245;45.384;20.390;2023-02-13T00:48:40;52.00;2227.20
55365;DHT22;41245;45.384;20.390;2023-02-13T00:51:07;52.00;2227.20
55365;DHT22;41245;45.384;20.390;2023-02-13T00:53:34;52.00;2227.20
55365;DHT22;41245;45.384;20.390;2023-02-13T00:56:00;52.10;2227.20
55365;DHT22;41245;45.384;20.390;2023-02-13T00:58:26;51.90;2227.20
55365;DHT22;41245;45.384;20.390;2023-02-13T01:00:53;51.70;2227.20
55365;DHT22;41245;45.384;20.390;2023-02-13T01:03:20;51.70;2227.20
55365;DHT22;41245;45.384;20.390;2023-02-13T01:05:46;51.90;2227.20
55365;DHT22;41245;45.384;20.390;2023-02-13T01:08:13;52.00;2227.20
55365;DHT22;41245;45.384;20.390;2023-02-13T01:10:40;76.80;2227.20
55365;DHT22;41245;45.384;20.390;2023-02-13T01:13:06;76.90;2227.20
55365;DHT22;41245;45.384;20.390;2023-02-13T01:15:32;77.00;2227.20
55365;DHT22;41245;45.384;20.390;2023-02-13T01:17:58;77.00;2227.20
55365;DHT22;41245;45.384;20.390;2023-02-13T01:20:26;77.00;2227.20
55365;DHT22;41245;45.384;20.390;2023-02-13T01:22:52;77.00;2227.20
55365;DHT22;41245;45.384;20.390;2023-02-13T01:25:18;77.00;2227.20
55365;DHT22;41245;45.384;20.390;2023-02-13T01:27:44;76.90;2227.20
55365;DHT22;41245;45.384;20.390;2023-02-13T01:30:12;76.90;2227.20
55365;DHT22;41245;45.384;20.390;2023-02-13T01:32:42;76.90;2227.20
55365;DHT22;41245;45.384;20.390;2023-02-13T01:35:09;76.80;2227.20
55365;DHT22;41245;45.384;20.390;2023-02-13T01:37:35;76.80;2227.20
55365;DHT22;41245;45.384;20.390;2023-02-13T01:40:02;52.10;2227.20
55365;DHT22;41245;45.384;20.390;2023-02-13T01:42:30;51.90;2227.20
55365;DHT22;41245;45.384;20.390;2023-02-13T01:44:58;52.00;2227.20
55365;DHT22;41245;45.384;20.390;2023-02-13T01:50:13;51.90;2227.20
55365;DHT22;41245;45.384;20.390;2023-02-13T01:52:48;51.90;2227.20
55365;DHT22;41245;45.384;20.390;2023-02-13T01:55:15;51.90;2227.20
55365;DHT22;41245;45.384;20.390;2023-02-13T01:57:46;51.90;2227.20
55365;DHT22;41245;45.384;20.390;2023-02-13T02:00:15;51.90;2227.20
55365;DHT22;41245;45.384;20.390;2023-02-13T02:02:46;51.70;2227.20
55365;DHT22;41245;45.384;20.390;2023-02-13T02:05:14;51.70;2227.20
55365;DHT22;41245;45.384;20.390;2023-02-13T02:07:41;51.70;2227.20
55365;DHT22;41245;45.384;20.390;2023-02-13T02:10:12;51.70;2227.20
55365;DHT22;41245;45.384;20.390;2023-02-13T02:15:28;51.80;2227.20
55365;DHT22;41245;45.384;20.390;2023-02-13T02:17:54;51.80;2227.20
55365;DHT22;41245;45.384;20.390;2023-02-13T02:39:52;51.80;2227.20
55365;DHT22;41245;45.384;20.390;2023-02-13T02:45:23;51.80;2227.20
55365;DHT22;41245;45.384;20.390;2023-02-13T02:47:59;51.70;2227.20
55365;DHT22;41245;45.384;20.390;2023-02-13T02:53:44;51.70;2227.20
55365;DHT22;41245;45.384;20.390;2023-02-13T02:56:53;51.70;2227.20
55365;DHT22;41245;45.384;20.390;2023-02-13T02:59:04;51.70;2227.20
55365;DHT22;41245;45.384;20.390;2023-02-13T03:01:54;51.70;2227.20
55365;DHT22;41245;45.384;20.390;2023-02-13T03:04:41;51.70;2227.20
55365;DHT22;41245;45.384;20.390;2023-02-13T03:07:27;51.70;2227.20
55365;DHT22;41245;45.384;20.390;2023-02-13T03:09:56;51.70;2227.20
55365;DHT22;41245;45.384;20.390;2023-02-13T03:12:52;51.70;2227.20
55365;DHT22;41245;45.384;20.390;2023-02-13T03:15:39;51.60;2227.20
55365;DHT22;41245;45.384;20.390;2023-02-13T03:18:27;51.50;2227.20
55365;DHT22;41245;45.384;20.390;2023-02-13T03:21:43;51.50;2227.20
55365;DHT22;41245;45.384;20.390;2023-02-13T03:30:24;51.50;2227.20
55365;DHT22;41245;45.384;20.390;2023-02-13T03:32:55;51.50;2227.20
55365;DHT22;41245;45.384;20.390;2023-02-13T03:41:39;51.40;2227.20
55365;DHT22;41245;45.384;20.390;2023-02-13T03:44:31;51.30;2227.20
55365;DHT22;41245;45.384;20.390;2023-02-13T03:47:01;51.30;2227.20
55365;DHT22;41245;45.384;20.390;2023-02-13T03:49:36;51.30;2227.20
55365;DHT22;41245;45.384;20.390;2023-02-13T03:52:33;51.20;2227.20
55365;DHT22;41245;45.384;20.390;2023-02-13T03:55:04;51.20;2227.20
55365;DHT22;41245;45.384;20.390;2023-02-13T03:57:51;51.20;2227.20
55365;DHT22;41245;45.384;20.390;2023-02-13T04:00:41;51.20;2227.20
55365;DHT22;41245;45.384;20.390;2023-02-13T04:06:22;51.20;2227.20
55365;DHT22;41245;45.384;20.390;2023-02-13T04:08:49;51.20;2227.20
55365;DHT22;41245;45.384;20.390;2023-02-13T04:17:26;26.40;2201.60
55365;DHT22;41245;45.384;20.390;2023-02-13T04:19:54;26.40;2201.60
55365;DHT22;41245;45.384;20.390;2023-02-13T04:22:20;26.30;2201.60
55365;DHT22;41245;45.384;20.390;2023-02-13T04:24:46;26.30;2201.60
55365;DHT22;41245;45.384;20.390;2023-02-13T04:27:15;26.20;2201.60
55365;DHT22;41245;45.384;20.390;2023-02-13T04:29:41;26.40;2201.60
55365;DHT22;41245;45.384;20.390;2023-02-13T04:32:09;26.10;2201.60
55365;DHT22;41245;45.384;20.390;2023-02-13T04:34:35;26.10;2201.60
55365;DHT22;41245;45.384;20.390;2023-02-13T04:37:01;26.10;2201.60
55365;DHT22;41245;45.384;20.390;2023-02-13T04:39:26;26.20;2201.60
55365;DHT22;41245;45.384;20.390;2023-02-13T04:41:52;26.20;2201.60
55365;DHT22;41245;45.384;20.390;2023-02-13T04:44:17;26.30;2201.60
55365;DHT22;41245;45.384;20.390;2023-02-13T04:46:43;26.30;2201.60
55365;DHT22;41245;45.384;20.390;2023-02-13T04:49:10;26.30;2201.60
55365;DHT22;41245;45.384;20.390;2023-02-13T04:51:35;26.20;2201.60
55365;DHT22;41245;45.384;20.390;2023-02-13T04:54:01;26.20;2201.60
55365;DHT22;41245;45.384;20.390;2023-02-13T04:56:27;26.20;2201.60
55365;DHT22;41245;45.384;20.390;2023-02-13T04:58:54;26.20;2201.60
55365;DHT22;41245;45.384;20.390;2023-02-13T05:01:20;26.20;2201.60
55365;DHT22;41245;45.384;20.390;2023-02-13T05:03:46;26.20;2201.60
55365;DHT22;41245;45.384;20.390;2023-02-13T05:06:12;26.20;2201.60
55365;DHT22;41245;45.384;20.390;2023-02-13T05:08:38;26.10;2201.60
55365;DHT22;41245;45.384;20.390;2023-02-13T05:11:04;26.10;2201.60
55365;DHT22;41245;45.384;20.390;2023-02-13T05:13:30;26.10;2201.60
55365;DHT22;41245;45.384;20.390;2023-02-13T05:15:55;26.10;2201.60
55365;DHT22;41245;45.384;20.390;2023-02-13T05:18:21;26.10;2201.60
55365;DHT22;41245;45.384;20.390;2023-02-13T05:20:46;26.10;2201.60
55365;DHT22;41245;45.384;20.390;2023-02-13T05:23:32;26.10;2201.60
55365;DHT22;41245;45.384;20.390;2023-02-13T05:25:58;26.10;2201.60
55365;DHT22;41245;45.384;20.390;2023-02-13T05:28:24;26.10;2201.60
55365;DHT22;41245;45.384;20.390;2023-02-13T05:31:08;26.10;2201.60
55365;DHT22;41245;45.384;20.390;2023-02-13T05:33:34;26.10;2201.60
55365;DHT22;41245;45.384;20.390;2023-02-13T05:35:59;26.10;2201.60
55365;DHT22;41245;45.384;20.390;2023-02-13T05:38:25;26.10;2201.60
55365;DHT22;41245;45.384;20.390;2023-02-13T05:40:50;26.00;2201.60
55365;DHT22;41245;45.384;20.390;2023-02-13T05:43:16;26.00;2201.60
55365;DHT22;41245;45.384;20.390;2023-02-13T05:45:42;26.00;2201.60
55365;DHT22;41245;45.384;20.390;2023-02-13T05:48:07;26.00;2201.60
55365;DHT22;41245;45.384;20.390;2023-02-13T05:50:33;26.10;2201.60
55365;DHT22;41245;45.384;20.390;2023-02-13T05:52:58;26.10;2201.60
55365;DHT22;41245;45.384;20.390;2023-02-13T05:55:24;26.10;2201.60
55365;DHT22;41245;45.384;20.390;2023-02-13T05:57:55;26.10;2201.60
55365;DHT22;41245;45.384;20.390;2023-02-13T06:00:21;26.20;2201.60
55365;DHT22;41245;45.384;20.390;2023-02-13T06:02:46;26.20;2201.60
55365;DHT22;41245;45.384;20.390;2023-02-13T06:05:12;26.20;2201.60
55365;DHT22;41245;45.384;20.390;2023-02-13T06:07:37;26.20;2201.60
55365;DHT22;41245;45.384;20.390;2023-02-13T06:10:03;26.30;2201.60
55365;DHT22;41245;45.384;20.390;2023-02-13T06:12:29;26.30;2201.60
55365;DHT22;41245;45.384;20.390;2023-02-13T06:14:54;26.30;2201.60
55365;DHT22;41245;45.384;20.390;2023-02-13T06:17:20;26.40;2201.60
55365;DHT22;41245;45.384;20.390;2023-02-13T06:19:46;26.40;2201.60
55365;DHT22;41245;45.384;20.390;2023-02-13T06:22:11;26.50;2201.60
55365;DHT22;41245;45.384;20.390;2023-02-13T06:24:37;51.20;2227.20
55365;DHT22;41245;45.384;20.390;2023-02-13T06:27:02;51.20;2227.20
55365;DHT22;41245;45.384;20.390;2023-02-13T06:29:28;51.30;2227.20
55365;DHT22;41245;45.384;20.390;2023-02-13T06:31:55;51.20;2227.20
55365;DHT22;41245;45.384;20.390;2023-02-13T06:34:21;51.40;2227.20
55365;DHT22;41245;45.384;20.390;2023-02-13T06:36:47;51.50;2227.20
55365;DHT22;41245;45.384;20.390;2023-02-13T06:39:13;51.60;2227.20
55365;DHT22;41245;45.384;20.390;2023-02-13T06:41:38;51.60;2227.20
55365;DHT22;41245;45.384;20.390;2023-02-13T06:44:04;51.70;2227.20
55365;DHT22;41245;45.384;20.390;2023-02-13T06:46:29;51.80;2227.20
55365;DHT22;41245;45.384;20.390;2023-02-13T06:48:55;51.90;2227.20
55365;DHT22;41245;45.384;20.390;2023-02-13T06:51:21;52.00;2227.20
55365;DHT22;41245;45.384;20.390;2023-02-13T06:53:46;76.80;2227.20
55365;DHT22;41245;45.384;20.390;2023-02-13T06:56:12;76.90;2227.20
55365;DHT22;41245;45.384;20.390;2023-02-13T06:58:37;76.90;2227.20
55365;DHT22;41245;45.384;20.390;2023-02-13T07:01:04;76.90;2227.20
55365;DHT22;41245;45.384;20.390;2023-02-13T07:03:30;76.80;2227.20
55365;DHT22;41245;45.384;20.390;2023-02-13T07:05:55;76.90;2227.20
55365;DHT22;41245;45.384;20.390;2023-02-13T07:08:21;52.10;2227.20
55365;DHT22;41245;45.384;20.390;2023-02-13T07:10:47;76.80;2227.20
55365;DHT22;41245;45.384;20.390;2023-02-13T07:13:13;76.80;2227.20
55365;DHT22;41245;45.384;20.390;2023-02-13T07:15:38;77.00;2227.20
55365;DHT22;41245;45.384;20.390;2023-02-13T07:18:04;77.10;2227.20
55365;DHT22;41245;45.384;20.390;2023-02-13T07:20:31;77.30;2227.20
55365;DHT22;41245;45.384;20.390;2023-02-13T07:22:58;77.60;2227.20
55365;DHT22;41245;45.384;20.390;2023-02-13T07:25:24;77.70;2227.20
55365;DHT22;41245;45.384;20.390;2023-02-13T07:27:50;102.40;2227.20
55365;DHT22;41245;45.384;20.390;2023-02-13T07:30:16;77.60;2227.20
55365;DHT22;41245;45.384;20.390;2023-02-13T07:32:41;77.60;2227.20
55365;DHT22;41245;45.384;20.390;2023-02-13T07:35:07;77.70;2227.20
55365;DHT22;41245;45.384;20.390;2023-02-13T07:38:05;77.70;2227.20
55365;DHT22;41245;45.384;20.390;2023-02-13T07:40:30;102.40;2227.20
55365;DHT22;41245;45.384;20.390;2023-02-13T07:42:59;102.50;2227.20
55365;DHT22;41245;45.384;20.390;2023-02-13T07:45:25;102.60;2227.20
55365;DHT22;41245;45.384;20.390;2023-02-13T07:47:50;102.70;2227.20
55365;DHT22;41245;45.384;20.390;2023-02-13T07:50:16;102.90;2227.20
55365;DHT22;41245;45.384;20.390;2023-02-13T07:52:41;103.10;2227.20
55365;DHT22;41245;45.384;20.390;2023-02-13T07:55:07;103.20;2227.20
55365;DHT22;41245;45.384;20.390;2023-02-13T07:57:35;128.00;2252.80
55365;DHT22;41245;45.384;20.390;2023-02-13T08:00:01;128.10;2252.80
55365;DHT22;41245;45.384;20.390;2023-02-13T08:02:27;128.30;2252.80
55365;DHT22;41245;45.384;20.390;2023-02-13T08:04:53;128.40;2252.80
55365;DHT22;41245;45.384;20.390;2023-02-13T08:07:18;128.60;2252.80
55365;DHT22;41245;45.384;20.390;2023-02-13T08:09:45;128.80;2252.80
55365;DHT22;41245;45.384;20.390;2023-02-13T08:12:30;128.80;2252.80
55365;DHT22;41245;45.384;20.390;2023-02-13T08:14:56;153.70;2252.80
55365;DHT22;41245;45.384;20.390;2023-02-13T08:17:22;153.90;2252.80
55365;DHT22;41245;45.384;20.390;2023-02-13T08:19:48;154.10;2252.80
55365;DHT22;41245;45.384;20.390;2023-02-13T08:22:13;154.20;2252.80
55365;DHT22;41245;45.384;20.390;2023-02-13T08:24:39;154.30;2252.80
55365;DHT22;41245;45.384;20.390;2023-02-13T08:27:05;154.40;2252.80
55365;DHT22;41245;45.384;20.390;2023-02-13T08:29:30;154.30;2252.80
55365;DHT22;41245;45.384;20.390;2023-02-13T08:31:57;154.30;2252.80
55365;DHT22;41245;45.384;20.390;2023-02-13T08:34:22;154.40;2252.80
55365;DHT22;41245;45.384;20.390;2023-02-13T08:36:48;154.40;2252.80
55365;DHT22;41245;45.384;20.390;2023-02-13T08:39:14;154.40;2252.80
55365;DHT22;41245;45.384;20.390;2023-02-13T08:41:39;154.50;2252.80
55365;DHT22;41245;45.384;20.390;2023-02-13T08:44:05;179.30;2252.80
55365;DHT22;41245;45.384;20.390;2023-02-13T08:46:30;179.50;2252.80
55365;DHT22;41245;45.384;20.390;2023-02-13T08:48:56;179.70;2252.80
55365;DHT22;41245;45.384;20.390;2023-02-13T08:51:22;179.90;2252.80
55365;DHT22;41245;45.384;20.390;2023-02-13T08:53:47;180.00;2252.80
55365;DHT22;41245;45.384;20.390;2023-02-13T08:56:13;180.10;2252.80
55365;DHT22;41245;45.384;20.390;2023-02-13T08:58:39;204.90;2252.80
55365;DHT22;41245;45.384;20.390;2023-02-13T09:01:06;205.10;2252.80
55365;DHT22;41245;45.384;20.390;2023-02-13T09:03:32;205.00;2252.80
55365;DHT22;41245;45.384;20.390;2023-02-13T09:06:00;205.00;2252.80
55365;DHT22;41245;45.384;20.390;2023-02-13T09:08:26;205.10;2252.80
55365;DHT22;41245;45.384;20.390;2023-02-13T09:10:56;205.30;2252.80
55365;DHT22;41245;45.384;20.390;2023-02-13T09:13:22;205.30;2252.80
55365;DHT22;41245;45.384;20.390;2023-02-13T09:15:48;205.50;2252.80
55365;DHT22;41245;45.384;20.390;2023-02-13T09:18:14;205.60;2252.80
55365;DHT22;41245;45.384;20.390;2023-02-13T09:20:39;205.70;2252.80
55365;DHT22;41245;45.384;20.390;2023-02-13T09:23:05;230.40;2252.80
55365;DHT22;41245;45.384;20.390;2023-02-13T09:25:30;230.50;2252.80
55365;DHT22;41245;45.384;20.390;2023-02-13T09:27:56;230.60;2252.80
55365;DHT22;41245;45.384;20.390;2023-02-13T09:30:23;230.40;2252.80
55365;DHT22;41245;45.384;20.390;2023-02-13T09:32:50;230.40;2252.80
55365;DHT22;41245;45.384;20.390;2023-02-13T09:35:17;230.50;2252.80
55365;DHT22;41245;45.384;20.390;2023-02-13T09:37:43;230.40;2252.80
55365;DHT22;41245;45.384;20.390;2023-02-13T09:40:23;230.60;2252.80
55365;DHT22;41245;45.384;20.390;2023-02-13T09:42:52;230.70;2252.80
55365;DHT22;41245;45.384;20.390;2023-02-13T09:45:19;230.80;2252.80
55365;DHT22;41245;45.384;20.390;2023-02-13T09:47:46;230.80;2252.80
55365;DHT22;41245;45.384;20.390;2023-02-13T09:52:38;230.70;2252.80
55365;DHT22;41245;45.384;20.390;2023-02-13T10:00:40;231.00;2252.80
55365;DHT22;41245;45.384;20.390;2023-02-13T10:03:30;231.10;2252.80
55365;DHT22;41245;45.384;20.390;2023-02-13T10:05:58;231.30;2252.80
55365;DHT22;41245;45.384;20.390;2023-02-13T10:17:08;256.10;2252.80
55365;DHT22;41245;45.384;20.390;2023-02-13T10:19:38;256.20;2252.80
55365;DHT22;41245;45.384;20.390;2023-02-13T10:22:21;256.20;2252.80
55365;DHT22;41245;45.384;20.390;2023-02-13T10:24:56;256.00;2252.80
55365;DHT22;41245;45.384;20.390;2023-02-13T10:27:28;256.00;2252.80
55365;DHT22;41245;45.384;20.390;2023-02-13T10:29:59;231.30;2252.80
55365;DHT22;41245;45.384;20.390;2023-02-13T10:37:46;256.10;2252.80
55365;DHT22;41245;45.384;20.390;2023-02-13T10:40:16;256.20;2252.80
55365;DHT22;41245;45.384;20.390;2023-02-13T10:42:54;256.40;2252.80
55365;DHT22;41245;45.384;20.390;2023-02-13T10:48:46;256.50;2252.80
55365;DHT22;41245;45.384;20.390;2023-02-13T10:57:03;256.40;2252.80
55365;DHT22;41245;45.384;20.390;2023-02-13T10:59:46;256.50;2252.80
55365;DHT22;41245;45.384;20.390;2023-02-13T11:02:20;256.60;2252.80
55365;DHT22;41245;45.384;20.390;2023-02-13T11:04:46;256.70;2252.80
55365;DHT22;41245;45.384;20.390;2023-02-13T11:07:17;256.70;2252.80
55365;DHT22;41245;45.384;20.390;2023-02-13T11:09:46;256.90;2252.80
55365;DHT22;41245;45.384;20.390;2023-02-13T11:15:38;256.80;2252.80
55365;DHT22;41245;45.384;20.390;2023-02-13T11:17:40;256.90;2252.80
55365;DHT22;41245;45.384;20.390;2023-02-13T11:20:41;281.60;2278.40
55365;DHT22;41245;45.384;20.390;2023-02-13T11:26:08;281.80;2278.40
55365;DHT22;41245;45.384;20.390;2023-02-13T11:29:15;281.90;2278.40
55365;DHT22;41245;45.384;20.390;2023-02-13T11:31:33;281.70;2278.40
55365;DHT22;41245;45.384;20.390;2023-02-13T11:34:28;281.90;2278.40
55365;DHT22;41245;45.384;20.390;2023-02-13T11:37:23;282.00;2278.40
55365;DHT22;41245;45.384;20.390;2023-02-13T11:39:51;282.10;2278.40
55365;DHT22;41245;45.384;20.390;2023-02-13T11:44:51;282.10;2278.40
55365;DHT22;41245;45.384;20.390;2023-02-13T11:49:58;282.20;2278.40
55365;DHT22;41245;45.384;20.390;2023-02-13T11:52:27;282.30;2278.40
55365;DHT22;41245;45.384;20.390;2023-02-13T11:55:02;282.20;2278.40
55365;DHT22;41245;45.384;20.390;2023-02-13T11:57:34;282.30;2278.40
55365;DHT22;41245;45.384;20.390;2023-02-13T12:00:46;282.40;2278.40
55365;DHT22;41245;45.384;20.390;2023-02-13T12:02:48;282.40;2278.40
55365;DHT22;41245;45.384;20.390;2023-02-13T12:05:18;282.30;2278.40
55365;DHT22;41245;45.384;20.390;2023-02-13T12:07:45;282.30;2278.40
55365;DHT22;41245;45.384;20.390;2023-02-13T12:12:53;282.40;2278.40
55365;DHT22;41245;45.384;20.390;2023-02-13T12:40:24;307.40;2304.00
55365;DHT22;41245;45.384;20.390;2023-02-13T12:59:57;307.50;2304.00
55365;DHT22;41245;45.384;20.390;2023-02-13T13:13:26;307.70;2304.00
55365;DHT22;41245;45.384;20.390;2023-02-13T13:24:03;307.40;2304.00
55365;DHT22;41245;45.384;20.390;2023-02-13T13:26:44;307.50;2304.00
55365;DHT22;41245;45.384;20.390;2023-02-13T13:29:16;307.40;2304.00
55365;DHT22;41245;45.384;20.390;2023-02-13T13:31:52;307.30;2304.00
55365;DHT22;41245;45.384;20.390;2023-02-13T13:34:22;307.30;2304.00
55365;DHT22;41245;45.384;20.390;2023-02-13T13:37:18;307.20;2304.00
55365;DHT22;41245;45.384;20.390;2023-02-13T13:45:23;307.60;2304.00
55365;DHT22;41245;45.384;20.390;2023-02-13T13:48:28;307.70;2304.00
55365;DHT22;41245;45.384;20.390;2023-02-13T13:50:47;307.70;2304.00
55365;DHT22;41245;45.384;20.390;2023-02-13T13:53:18;307.40;2304.00
55365;DHT22;41245;45.384;20.390;2023-02-13T13:58:30;307.30;2304.00
55365;DHT22;41245;45.384;20.390;2023-02-13T14:03:46;282.40;2278.40
55365;DHT22;41245;45.384;20.390;2023-02-13T14:06:14;282.30;2278.40
55365;DHT22;41245;45.384;20.390;2023-02-13T14:13:39;282.10;2278.40
55365;DHT22;41245;45.384;20.390;2023-02-13T14:16:11;282.40;2278.40
55365;DHT22;41245;45.384;20.390;2023-02-13T14:18:37;282.50;2278.40
55365;DHT22;41245;45.384;20.390;2023-02-13T14:21:08;282.50;2278.40
55365;DHT22;41245;45.384;20.390;2023-02-13T14:23:46;307.20;2304.00
55365;DHT22;41245;45.384;20.390;2023-02-13T14:28:56;282.40;2278.40
55365;DHT22;41245;45.384;20.390;2023-02-13T14:31:37;282.10;2278.40
55365;DHT22;41245;45.384;20.390;2023-02-13T14:36:35;307.50;2304.00
55365;DHT22;41245;45.384;20.390;2023-02-13T14:39:27;307.60;2304.00
55365;DHT22;41245;45.384;20.390;2023-02-13T14:47:11;307.80;2304.00
55365;DHT22;41245;45.384;20.390;2023-02-13T14:49:40;307.70;2304.00
55365;DHT22;41245;45.384;20.390;2023-02-13T14:52:16;307.80;2304.00
55365;DHT22;41245;45.384;20.390;2023-02-13T14:54:48;307.70;2304.00
55365;DHT22;41245;45.384;20.390;2023-02-13T14:59:52;307.80;2304.00
55365;DHT22;41245;45.384;20.390;2023-02-13T15:02:27;307.70;2304.00
55365;DHT22;41245;45.384;20.390;2023-02-13T15:05:13;307.70;2304.00
55365;DHT22;41245;45.384;20.390;2023-02-13T15:07:58;307.60;2304.00
55365;DHT22;41245;45.384;20.390;2023-02-13T15:10:44;307.60;2304.00
55365;DHT22;41245;45.384;20.390;2023-02-13T15:16:10;307.70;2304.00
55365;DHT22;41245;45.384;20.390;2023-02-13T15:18:50;307.60;2304.00
55365;DHT22;41245;45.384;20.390;2023-02-13T15:21:21;307.60;2304.00
55365;DHT22;41245;45.384;20.390;2023-02-13T15:23:51;307.60;2304.00
55365;DHT22;41245;45.384;20.390;2023-02-13T15:26:22;307.60;2304.00
55365;DHT22;41245;45.384;20.390;2023-02-13T15:29:03;307.70;2304.00
55365;DHT22;41245;45.384;20.390;2023-02-13T15:31:31;307.60;2304.00
55365;DHT22;41245;45.384;20.390;2023-02-13T15:33:58;307.60;2304.00
55365;DHT22;41245;45.384;20.390;2023-02-13T15:36:25;307.60;2304.00
55365;DHT22;41245;45.384;20.390;2023-02-13T15:38:59;307.50;2304.00
55365;DHT22;41245;45.384;20.390;2023-02-13T15:41:31;307.50;2304.00
55365;DHT22;41245;45.384;20.390;2023-02-13T15:43:58;307.50;2304.00
55365;DHT22;41245;45.384;20.390;2023-02-13T15:46:30;307.40;2304.00
55365;DHT22;41245;45.384;20.390;2023-02-13T15:49:08;307.30;2304.00
55365;DHT22;41245;45.384;20.390;2023-02-13T15:51:34;307.20;2304.00
55365;DHT22;41245;45.384;20.390;2023-02-13T15:54:02;282.50;2278.40
55365;DHT22;41245;45.384;20.390;2023-02-13T15:56:30;282.40;2278.40
55365;DHT22;41245;45.384;20.390;2023-02-13T15:58:57;282.20;2278.40
55365;DHT22;41245;45.384;20.390;2023-02-13T16:01:23;282.10;2278.40
55365;DHT22;41245;45.384;20.390;2023-02-13T16:03:55;282.00;2278.40
55365;DHT22;41245;45.384;20.390;2023-02-13T16:06:24;281.90;2278.40
55365;DHT22;41245;45.384;20.390;2023-02-13T16:08:54;281.80;2278.40
55365;DHT22;41245;45.384;20.390;2023-02-13T16:14:22;281.60;2278.40
55365;DHT22;41245;45.384;20.390;2023-02-13T16:19:27;256.70;2252.80
55365;DHT22;41245;45.384;20.390;2023-02-13T16:21:55;256.60;2252.80
55365;DHT22;41245;45.384;20.390;2023-02-13T16:24:23;256.50;2252.80
55365;DHT22;41245;45.384;20.390;2023-02-13T16:26:49;256.40;2252.80
55365;DHT22;41245;45.384;20.390;2023-02-13T16:29:21;256.20;2252.80
55365;DHT22;41245;45.384;20.390;2023-02-13T16:31:48;256.10;2252.80
55365;DHT22;41245;45.384;20.390;2023-02-13T16:34:26;256.00;2252.80
55365;DHT22;41245;45.384;20.390;2023-02-13T16:36:53;231.30;2252.80
55365;DHT22;41245;45.384;20.390;2023-02-13T16:39:30;231.20;2252.80
55365;DHT22;41245;45.384;20.390;2023-02-13T16:41:58;231.00;2252.80
55365;DHT22;41245;45.384;20.390;2023-02-13T16:47:02;230.80;2252.80
55365;DHT22;41245;45.384;20.390;2023-02-13T16:49:33;230.70;2252.80
55365;DHT22;41245;45.384;20.390;2023-02-13T16:52:28;230.60;2252.80
55365;DHT22;41245;45.384;20.390;2023-02-13T16:54:58;230.60;2252.80
55365;DHT22;41245;45.384;20.390;2023-02-13T16:57:33;230.40;2252.80
55365;DHT22;41245;45.384;20.390;2023-02-13T17:00:18;230.40;2252.80
55365;DHT22;41245;45.384;20.390;2023-02-13T17:02:46;205.70;2252.80
55365;DHT22;41245;45.384;20.390;2023-02-13T17:05:30;205.60;2252.80
55365;DHT22;41245;45.384;20.390;2023-02-13T17:07:56;205.60;2252.80
55365;DHT22;41245;45.384;20.390;2023-02-13T17:10:28;205.40;2252.80
55365;DHT22;41245;45.384;20.390;2023-02-13T17:13:20;205.40;2252.80
55365;DHT22;41245;45.384;20.390;2023-02-13T17:15:47;205.20;2252.80
55365;DHT22;41245;45.384;20.390;2023-02-13T17:18:13;205.10;2252.80
55365;DHT22;41245;45.384;20.390;2023-02-13T17:20:43;205.10;2252.80
55365;DHT22;41245;45.384;20.390;2023-02-13T17:23:21;205.10;2252.80
55365;DHT22;41245;45.384;20.390;2023-02-13T17:25:48;204.90;2252.80
55365;DHT22;41245;45.384;20.390;2023-02-13T17:30:44;180.10;2252.80
55365;DHT22;41245;45.384;20.390;2023-02-13T17:33:21;180.10;2252.80
55365;DHT22;41245;45.384;20.390;2023-02-13T17:35:48;180.00;2252.80
55365;DHT22;41245;45.384;20.390;2023-02-13T17:38:14;180.00;2252.80
55365;DHT22;41245;45.384;20.390;2023-02-13T17:40:40;180.00;2252.80
55365;DHT22;41245;45.384;20.390;2023-02-13T17:43:08;179.90;2252.80
55365;DHT22;41245;45.384;20.390;2023-02-13T17:45:35;179.80;2252.80
55365;DHT22;41245;45.384;20.390;2023-02-13T17:48:00;179.80;2252.80
55365;DHT22;41245;45.384;20.390;2023-02-13T17:50:28;179.80;2252.80
55365;DHT22;41245;45.384;20.390;2023-02-13T17:52:54;179.70;2252.80
55365;DHT22;41245;45.384;20.390;2023-02-13T17:55:21;179.60;2252.80
55365;DHT22;41245;45.384;20.390;2023-02-13T17:57:49;179.50;2252.80
55365;DHT22;41245;45.384;20.390;2023-02-13T18:00:16;179.50;2252.80
55365;DHT22;41245;45.384;20.390;2023-02-13T18:02:41;179.30;2252.80
55365;DHT22;41245;45.384;20.390;2023-02-13T18:05:08;179.40;2252.80
55365;DHT22;41245;45.384;20.390;2023-02-13T18:07:34;179.30;2252.80
55365;DHT22;41245;45.384;20.390;2023-02-13T18:09:59;179.30;2252.80
55365;DHT22;41245;45.384;20.390;2023-02-13T18:12:25;179.30;2252.80
55365;DHT22;41245;45.384;20.390;2023-02-13T18:14:52;179.20;2252.80
55365;DHT22;41245;45.384;20.390;2023-02-13T18:17:18;179.20;2252.80